createdAt,value
2018-09-06T00:01:07.009Z,96838.16
2018-09-06T00:03:34.156Z,96841.39
2018-09-06T00:06:01.540Z,96838.61
2018-09-06T00:08:28.683Z,96834.66
2018-09-06T00:10:55.789Z,96827.17
2018-09-06T00:13:23.132Z,96829.87
2018-09-06T00:15:50.230Z,96822.89
2018-09-06T00:18:17.381Z,96828.61
2018-09-06T00:20:44.505Z,96830.97
2018-09-06T00:23:11.712Z,96829.29
2018-09-06T00:25:38.941Z,96826.72
2018-09-06T00:28:06.564Z,96827.48
2018-09-06T00:30:33.709Z,96824.73
2018-09-06T00:33:00.869Z,96828.77
2018-09-06T00:35:28.043Z,96828.14
2018-09-06T00:37:55.183Z,96829.01
2018-09-06T00:40:22.481Z,96828.39
2018-09-06T00:42:49.711Z,96825.98
2018-09-06T00:45:16.847Z,96828.70
2018-09-06T00:47:44.081Z,96826.63
2018-09-06T00:50:17.375Z,96823.98
2018-09-06T00:52:45.690Z,96821.75
2018-09-06T00:55:12.844Z,96814.67
2018-09-06T00:57:40.010Z,96812.13
2018-09-06T01:00:07.186Z,96809.06
2018-09-06T01:02:34.357Z,96812.50
2018-09-06T01:05:01.488Z,96806.38
2018-09-06T01:07:28.692Z,96809.01
2018-09-06T01:09:55.899Z,96803.16
2018-09-06T01:12:23.125Z,96802.01
2018-09-06T01:14:50.385Z,96805.73
2018-09-06T01:17:17.485Z,96798.77
2018-09-06T01:19:44.768Z,96794.23
2018-09-06T01:22:12.006Z,96794.93
2018-09-06T01:24:39.174Z,96793.14
2018-09-06T01:27:06.461Z,96794.44
2018-09-06T01:29:33.769Z,96787.52
2018-09-06T01:32:01.283Z,96788.32
2018-09-06T01:34:28.527Z,96787.63
2018-09-06T01:36:55.638Z,96791.73
2018-09-06T01:39:22.925Z,96782.99
2018-09-06T01:41:50.307Z,96784.83
2018-09-06T01:44:17.500Z,96783.42
2018-09-06T01:46:44.649Z,96786.28
2018-09-06T01:49:11.829Z,96786.19
2018-09-06T01:51:39.015Z,96790.89
2018-09-06T01:54:06.240Z,96792.08
2018-09-06T01:56:33.404Z,96793.75
2018-09-06T01:59:00.485Z,96790.20
2018-09-06T02:01:27.891Z,96786.22
2018-09-06T02:03:55.770Z,96791.72
2018-09-06T02:06:22.917Z,96790.84
2018-09-06T02:08:50.138Z,96785.91
2018-09-06T02:11:17.350Z,96789.01
2018-09-06T02:13:44.604Z,96781.91
2018-09-06T02:16:11.844Z,96775.72
2018-09-06T02:18:38.961Z,96785.00
2018-09-06T02:21:06.085Z,96792.09
2018-09-06T02:23:33.264Z,96785.31
2018-09-06T02:26:00.633Z,96785.23
2018-09-06T02:28:27.797Z,96780.13
2018-09-06T02:30:54.972Z,96775.03
2018-09-06T02:33:22.108Z,96769.80
2018-09-06T02:35:49.424Z,96763.84
2018-09-06T02:38:16.575Z,96764.33
2018-09-06T02:40:43.764Z,96758.45
2018-09-06T02:43:12.075Z,96766.08
2018-09-06T02:45:39.929Z,96768.53
2018-09-06T02:48:07.037Z,96770.06
2018-09-06T02:50:39.846Z,96776.27
2018-09-06T02:53:07.033Z,96766.75
2018-09-06T02:55:34.268Z,96766.75
2018-09-06T02:58:01.631Z,96770.95
2018-09-06T03:00:30.134Z,96768.95
2018-09-06T03:02:57.289Z,96763.74
2018-09-06T03:05:25.153Z,96760.09
2018-09-06T03:07:53.161Z,96762.77
2018-09-06T03:10:21.133Z,96760.11
2018-09-06T03:12:48.694Z,96756.23
2018-09-06T03:15:16.179Z,96752.80
2018-09-06T03:17:43.292Z,96751.80
2018-09-06T03:20:10.808Z,96756.08
2018-09-06T03:22:38.041Z,96760.30
2018-09-06T03:25:05.624Z,96754.96
2018-09-06T03:27:32.832Z,96754.44
2018-09-06T03:29:59.949Z,96755.38
2018-09-06T03:32:27.089Z,96752.92
2018-09-06T03:34:54.237Z,96750.03
2018-09-06T03:37:21.833Z,96744.23
2018-09-06T03:39:49.146Z,96748.85
2018-09-06T03:42:16.515Z,96741.67
2018-09-06T03:44:43.683Z,96742.91
2018-09-06T03:47:10.841Z,96741.47
2018-09-06T03:49:38.012Z,96735.38
2018-09-06T03:52:05.165Z,96746.20
2018-09-06T03:54:33.196Z,96738.69
2018-09-06T03:57:00.412Z,96735.05
2018-09-06T03:59:27.645Z,96734.95
2018-09-06T04:01:54.876Z,96735.74
2018-09-06T04:04:22.036Z,96733.53
2018-09-06T04:06:49.178Z,96731.43
2018-09-06T04:09:16.461Z,96732.43
2018-09-06T04:11:43.683Z,96729.06
2018-09-06T04:14:10.923Z,96728.80
2018-09-06T04:16:38.062Z,96730.61
2018-09-06T04:19:05.527Z,96728.84
2018-09-06T04:21:32.704Z,96727.62
2018-09-06T04:23:59.951Z,96729.95
2018-09-06T04:26:27.060Z,96726.20
2018-09-06T04:28:54.289Z,96726.63
2018-09-06T04:31:21.417Z,96725.83
2018-09-06T04:33:48.744Z,96733.68
2018-09-06T04:36:15.993Z,96733.42
2018-09-06T04:38:43.128Z,96732.69
2018-09-06T04:41:10.381Z,96735.01
2018-09-06T04:43:37.631Z,96737.55
2018-09-06T04:46:04.791Z,96734.97
2018-09-06T04:48:32.119Z,96733.42
2018-09-06T04:50:59.356Z,96735.86
2018-09-06T04:53:26.508Z,96731.98
2018-09-06T04:55:53.670Z,96728.91
2018-09-06T04:58:20.813Z,96732.64
2018-09-06T05:00:47.931Z,96726.97
2018-09-06T05:03:15.265Z,96734.44
2018-09-06T05:05:42.396Z,96737.45
2018-09-06T05:08:09.591Z,96736.98
2018-09-06T05:10:36.764Z,96736.58
2018-09-06T05:13:03.912Z,96739.46
2018-09-06T05:15:31.153Z,96737.04
2018-09-06T05:17:58.404Z,96739.39
2018-09-06T05:20:25.521Z,96736.41
2018-09-06T05:22:52.829Z,96736.95
2018-09-06T05:25:20.015Z,96737.55
2018-09-06T05:27:47.155Z,96739.42
2018-09-06T05:30:14.367Z,96736.34
2018-09-06T05:32:41.500Z,96735.26
2018-09-06T05:35:08.704Z,96732.19
2018-09-06T05:37:35.809Z,96732.13
2018-09-06T05:40:03.956Z,96727.62
2018-09-06T05:42:31.280Z,96724.87
2018-09-06T05:44:58.368Z,96723.03
2018-09-06T05:47:25.535Z,96728.90
2018-09-06T05:49:52.745Z,96726.13
2018-09-06T05:52:20.032Z,96722.27
2018-09-06T05:54:47.230Z,96725.48
2018-09-06T05:57:16.896Z,96726.92
2018-09-06T05:59:44.068Z,96728.46
2018-09-06T06:02:11.216Z,96731.13
2018-09-06T06:04:38.383Z,96731.22
2018-09-06T06:07:05.585Z,96726.80
2018-09-06T06:09:32.706Z,96726.91
2018-09-06T06:11:59.853Z,96721.02
2018-09-06T06:14:27.128Z,96725.10
2018-09-06T06:16:54.225Z,96720.66
2018-09-06T06:19:21.459Z,96722.85
2018-09-06T06:21:48.640Z,96726.25
2018-09-06T06:24:15.829Z,96731.22
2018-09-06T06:26:42.999Z,96720.38
2018-09-06T06:29:10.112Z,96717.71
2018-09-06T06:31:37.272Z,96720.23
2018-09-06T06:34:04.437Z,96718.98
2018-09-06T06:36:31.596Z,96712.20
2018-09-06T06:38:58.732Z,96714.36
2018-09-06T06:41:25.920Z,96714.69
2018-09-06T06:43:53.072Z,96715.91
2018-09-06T06:46:20.441Z,96716.05
2018-09-06T06:48:47.613Z,96712.15
2018-09-06T06:51:14.757Z,96711.70
2018-09-06T06:53:41.955Z,96713.55
2018-09-06T06:56:09.120Z,96711.84
2018-09-06T06:58:36.314Z,96712.47
2018-09-06T07:01:03.543Z,96710.72
2018-09-06T07:03:30.661Z,96713.86
2018-09-06T07:05:57.820Z,96712.67
2018-09-06T07:08:25.064Z,96710.83
2018-09-06T07:10:52.154Z,96704.82
2018-09-06T07:13:19.361Z,96706.45
2018-09-06T07:15:46.476Z,96707.69
2018-09-06T07:18:13.718Z,96702.23
2018-09-06T07:20:40.883Z,96696.64
2018-09-06T07:23:08.003Z,96699.30
2018-09-06T07:25:35.094Z,96705.40
2018-09-06T07:28:02.335Z,96705.14
2018-09-06T07:30:29.522Z,96698.65
2018-09-06T07:32:56.648Z,96703.42
2018-09-06T07:35:23.983Z,96697.98
2018-09-06T07:37:51.065Z,96692.45
2018-09-06T07:40:18.984Z,96696.66
2018-09-06T07:42:46.132Z,96698.20
2018-09-06T07:45:13.235Z,96700.66
2018-09-06T07:47:40.582Z,96702.32
2018-09-06T07:50:07.813Z,96701.81
2018-09-06T07:52:34.919Z,96701.48
2018-09-06T07:55:02.568Z,96692.34
2018-09-06T07:57:30.127Z,96696.57
2018-09-06T07:59:57.285Z,96693.56
2018-09-06T08:02:24.473Z,96691.82
2018-09-06T08:04:51.625Z,96700.22
2018-09-06T08:07:18.733Z,96699.75
2018-09-06T08:09:45.926Z,96698.64
2018-09-06T08:12:13.102Z,96699.06
2018-09-06T08:14:40.336Z,96691.92
2018-09-06T08:17:07.648Z,96694.88
2018-09-06T08:19:34.821Z,96694.68
2018-09-06T08:22:02.060Z,96695.64
2018-09-06T08:24:29.183Z,96695.45
2018-09-06T08:26:56.424Z,96691.16
2018-09-06T08:29:23.600Z,96692.44
2018-09-06T08:31:50.742Z,96685.33
2018-09-06T08:34:17.985Z,96694.56
2018-09-06T08:36:45.212Z,96688.05
2018-09-06T08:39:12.389Z,96689.00
2018-09-06T08:41:40.216Z,96695.72
2018-09-06T08:44:07.344Z,96686.89
2018-09-06T08:46:34.552Z,96683.23
2018-09-06T08:49:01.805Z,96687.65
2018-09-06T08:51:28.947Z,96687.41
2018-09-06T08:53:56.125Z,96683.41
2018-09-06T08:56:23.372Z,96685.50
2018-09-06T08:58:50.572Z,96681.72
2018-09-06T09:01:52.991Z,96681.98
2018-09-06T09:04:20.149Z,96679.25
2018-09-06T09:06:47.272Z,96675.75
2018-09-06T09:09:16.013Z,96668.05
2018-09-06T09:11:43.220Z,96670.47
2018-09-06T09:14:17.377Z,96665.45
2018-09-06T09:16:44.571Z,96666.59
2018-09-06T09:19:11.701Z,96663.01
2018-09-06T09:21:38.982Z,96659.70
2018-09-06T09:24:06.525Z,96651.66
2018-09-06T09:26:34.353Z,96654.98
2018-09-06T09:29:01.561Z,96657.12
2018-09-06T09:31:28.776Z,96654.83
2018-09-06T09:33:55.941Z,96651.81
2018-09-06T09:36:23.240Z,96648.34
2018-09-06T09:38:50.997Z,96642.23
2018-09-06T09:41:18.140Z,96634.63
2018-09-06T09:43:45.371Z,96636.29
2018-09-06T09:48:39.329Z,96630.30
2018-09-06T09:51:06.502Z,96629.53
2018-09-06T09:53:40.485Z,96630.80
2018-09-06T09:56:07.764Z,96621.16
2018-09-06T09:58:35.057Z,96619.75
2018-09-06T10:01:02.177Z,96615.66
2018-09-06T10:03:34.892Z,96613.91
2018-09-06T10:06:07.856Z,96613.17
2018-09-06T10:08:40.673Z,96612.60
2018-09-06T10:11:07.809Z,96611.52
2018-09-06T10:13:35.071Z,96610.61
2018-09-06T10:16:02.275Z,96604.32
2018-09-06T10:18:29.492Z,96612.05
2018-09-06T10:20:56.677Z,96606.38
2018-09-06T10:23:23.980Z,96598.57
2018-09-06T10:25:51.280Z,96592.28
2018-09-06T10:28:18.552Z,96590.75
2018-09-06T10:30:45.727Z,96587.56
2018-09-06T10:33:13.035Z,96583.75
2018-09-06T10:35:40.222Z,96583.52
2018-09-06T10:38:07.433Z,96584.59
2018-09-06T10:40:34.689Z,96585.53
2018-09-06T10:43:01.857Z,96582.83
2018-09-06T10:45:29.097Z,96581.71
2018-09-06T10:47:56.318Z,96577.51
2018-09-06T10:50:23.476Z,96581.16
2018-09-06T10:52:50.817Z,96569.71
2018-09-06T10:55:18.165Z,96576.75
2018-09-06T10:57:45.329Z,96575.63
2018-09-06T11:00:13.263Z,96571.53
2018-09-06T11:02:40.589Z,96577.98
2018-09-06T11:05:07.748Z,96571.58
2018-09-06T11:07:35.484Z,96565.02
2018-09-06T11:10:02.757Z,96558.28
2018-09-06T11:12:29.948Z,96560.62
2018-09-06T11:14:57.203Z,96560.36
2018-09-06T11:17:24.396Z,96567.86
2018-09-06T11:19:51.652Z,96562.69
2018-09-06T11:22:19.327Z,96557.79
2018-09-06T11:24:46.246Z,96562.78
2018-09-06T11:27:13.443Z,96546.62
2018-09-06T11:29:40.637Z,96541.01
2018-09-06T11:32:07.846Z,96534.20
2018-09-06T11:34:35.100Z,96537.63
2018-09-06T11:37:02.449Z,96534.72
2018-09-06T11:39:29.641Z,96539.75
2018-09-06T11:41:56.830Z,96531.60
2018-09-06T11:44:23.990Z,96528.70
2018-09-06T11:46:51.181Z,96523.30
2018-09-06T11:49:18.492Z,96513.17
2018-09-06T11:51:45.771Z,96523.00
2018-09-06T11:54:12.992Z,96515.20
2018-09-06T11:56:40.217Z,96509.77
2018-09-06T11:59:07.350Z,96501.23
2018-09-06T12:01:34.588Z,96497.41
2018-09-06T12:04:02.004Z,96508.62
2018-09-06T12:06:29.323Z,96504.13
2018-09-06T12:08:56.455Z,96497.08
2018-09-06T12:11:23.728Z,96497.68
2018-09-06T12:13:50.971Z,96499.72
2018-09-06T12:16:18.231Z,96496.10
2018-09-06T12:18:45.478Z,96496.63
2018-09-06T12:21:12.686Z,96495.98
2018-09-06T12:23:40.146Z,96486.70
2018-09-06T12:26:07.354Z,96481.61
2018-09-06T12:28:34.582Z,96479.78
2018-09-06T12:31:01.967Z,96470.63
2018-09-06T12:33:29.307Z,96466.81
2018-09-06T12:35:56.732Z,96469.48
2018-09-06T12:38:24.024Z,96469.29
2018-09-06T12:40:51.201Z,96469.08
2018-09-06T12:43:18.414Z,96470.47
2018-09-06T12:45:45.869Z,96460.77
2018-09-06T12:48:13.172Z,96465.03
2018-09-06T12:50:40.393Z,96464.68
2018-09-06T12:53:07.719Z,96463.77
2018-09-06T12:55:34.969Z,96461.89
2018-09-06T12:58:02.445Z,96459.18
2018-09-06T13:00:29.801Z,96461.07
2018-09-06T13:02:57.027Z,96453.41
2018-09-06T13:05:24.276Z,96457.84
2018-09-06T13:07:51.639Z,96452.25
2018-09-06T13:10:18.918Z,96453.53
2018-09-06T13:12:46.230Z,96425.63
2018-09-06T13:15:13.547Z,96454.85
2018-09-06T13:17:40.769Z,96453.11
2018-09-06T13:20:08.108Z,96448.98
2018-09-06T13:22:35.372Z,96440.92
2018-09-06T13:25:03.226Z,96443.73
2018-09-06T13:27:30.477Z,96443.30
2018-09-06T13:29:57.840Z,96433.11
2018-09-06T13:32:25.071Z,96426.68
2018-09-06T13:34:52.374Z,96421.70
2018-09-06T13:37:19.572Z,96421.86
2018-09-06T13:39:46.760Z,96414.18
2018-09-06T13:42:14.075Z,96411.64
2018-09-06T13:44:41.272Z,96404.13
2018-09-06T13:47:08.543Z,96398.13
2018-09-06T13:49:35.829Z,96394.13
2018-09-06T13:52:03.115Z,96396.59
2018-09-06T13:54:30.375Z,96391.88
2018-09-06T13:56:57.665Z,96391.77
2018-09-06T13:59:24.987Z,96398.09
2018-09-06T14:01:52.321Z,96391.67
2018-09-06T14:04:19.631Z,96383.94
2018-09-06T14:06:46.889Z,96386.76
2018-09-06T14:09:14.196Z,96380.71
2018-09-06T14:11:41.460Z,96381.52
2018-09-06T14:14:08.752Z,96376.36
2018-09-06T14:16:36.101Z,96371.86
2018-09-06T14:19:03.322Z,96371.02
2018-09-06T14:21:30.470Z,96365.47
2018-09-06T14:23:57.681Z,96367.17
2018-09-06T14:26:24.861Z,96360.63
2018-09-06T14:28:52.163Z,96360.17
2018-09-06T14:31:19.588Z,96358.63
2018-09-06T14:33:46.836Z,96355.27
2018-09-06T14:36:14.310Z,96350.91
2018-09-06T14:38:41.788Z,96346.79
2018-09-06T14:41:08.972Z,96347.27
2018-09-06T14:43:36.341Z,96336.67
2018-09-06T14:46:03.568Z,96338.34
2018-09-06T14:48:30.953Z,96335.50
2018-09-06T14:50:58.232Z,96335.55
2018-09-06T14:53:25.584Z,96340.64
2018-09-06T14:55:52.847Z,96346.09
2018-09-06T14:58:20.248Z,96341.54
2018-09-06T15:00:47.502Z,96341.09
2018-09-06T15:03:14.792Z,96330.64
2018-09-06T15:05:42.119Z,96331.31
2018-09-06T15:08:09.389Z,96330.01
2018-09-06T15:10:36.972Z,96325.00
2018-09-06T15:13:04.236Z,96329.44
2018-09-06T15:15:31.552Z,96321.35
2018-09-06T15:17:58.777Z,96321.94
2018-09-06T15:20:26.071Z,96320.02
2018-09-06T15:22:53.317Z,96318.50
2018-09-06T15:25:20.647Z,96316.58
2018-09-06T15:27:48.577Z,96315.81
2018-09-06T15:30:15.834Z,96313.52
2018-09-06T15:32:43.167Z,96314.92
2018-09-06T15:35:10.462Z,96313.35
2018-09-06T15:37:37.710Z,96309.78
2018-09-06T15:40:05.439Z,96304.03
2018-09-06T15:42:32.718Z,96296.06
2018-09-06T15:45:00.003Z,96295.73
2018-09-06T15:47:27.368Z,96293.50
2018-09-06T15:49:54.633Z,96290.86
2018-09-06T15:52:21.791Z,96293.83
2018-09-06T15:54:49.285Z,96296.80
2018-09-06T15:57:16.493Z,96287.58
2018-09-06T15:59:43.753Z,96288.87
2018-09-06T16:02:11.066Z,96221.86
2018-09-06T16:04:38.295Z,96284.33
2018-09-06T16:07:05.554Z,96284.63
2018-09-06T16:09:32.958Z,96280.48
2018-09-06T16:12:00.138Z,96282.71
2018-09-06T16:14:27.358Z,96283.95
2018-09-06T16:16:54.562Z,96285.89
2018-09-06T16:19:21.747Z,96288.16
2018-09-06T16:21:49.012Z,96282.13
2018-09-06T16:24:16.423Z,96282.53
2018-09-06T16:26:43.693Z,96281.77
2018-09-06T16:29:10.972Z,96281.70
2018-09-06T16:31:38.312Z,96282.63
2018-09-06T16:34:05.976Z,96283.73
2018-09-06T16:36:33.221Z,96283.30
2018-09-06T16:39:00.473Z,96282.97
2018-09-06T16:41:27.738Z,96277.48
2018-09-06T16:43:56.120Z,96274.19
2018-09-06T16:46:24.061Z,96275.30
2018-09-06T16:48:51.241Z,96278.59
2018-09-06T16:51:19.160Z,96281.63
2018-09-06T16:53:46.468Z,96279.82
2018-09-06T16:56:13.687Z,96277.95
2018-09-06T16:58:40.885Z,96274.42
2018-09-06T17:01:08.193Z,96274.55
2018-09-06T17:03:35.408Z,96278.78
2018-09-06T17:06:02.585Z,96277.86
2018-09-06T17:08:29.865Z,96268.00
2018-09-06T17:10:57.113Z,96266.69
2018-09-06T17:13:24.454Z,96275.27
2018-09-06T17:15:51.870Z,96271.39
2018-09-06T17:18:19.106Z,96270.91
2018-09-06T17:20:46.392Z,96272.00
2018-09-06T17:23:13.714Z,96276.87
2018-09-06T17:25:40.933Z,96278.22
2018-09-06T17:28:08.288Z,96281.13
2018-09-06T17:30:35.750Z,96279.62
2018-09-06T17:33:03.009Z,96271.72
2018-09-06T17:35:30.268Z,96276.30
2018-09-06T17:37:57.534Z,96275.71
2018-09-06T17:40:24.772Z,96282.13
2018-09-06T17:42:52.223Z,96282.66
2018-09-06T17:45:19.395Z,96275.13
2018-09-06T17:47:46.959Z,96276.73
2018-09-06T17:50:14.260Z,96278.11
2018-09-06T17:52:41.621Z,96281.72
2018-09-06T17:55:08.833Z,96276.41
2018-09-06T17:57:36.218Z,96283.75
2018-09-06T18:00:04.132Z,96285.52
2018-09-06T18:02:31.377Z,96288.14
2018-09-06T18:04:58.709Z,96295.14
2018-09-06T18:07:26.031Z,96292.80
2018-09-06T18:09:53.451Z,96291.56
2018-09-06T18:12:21.373Z,96292.72
2018-09-06T18:14:48.904Z,96299.00
2018-09-06T18:17:16.267Z,96301.75
2018-09-06T18:19:43.666Z,96303.38
2018-09-06T18:22:10.914Z,96303.05
2018-09-06T18:24:38.141Z,96308.48
2018-09-06T18:27:05.544Z,96307.32
2018-09-06T18:29:32.927Z,96313.29
2018-09-06T18:32:00.344Z,96314.51
2018-09-06T18:34:27.642Z,96310.17
2018-09-06T18:36:54.956Z,96310.39
2018-09-06T18:39:22.353Z,96322.27
2018-09-06T18:41:49.724Z,96319.95
2018-09-06T18:44:17.024Z,96327.42
2018-09-06T18:46:44.332Z,96329.27
2018-09-06T18:49:11.667Z,96329.33
2018-09-06T18:51:38.909Z,96330.09
2018-09-06T18:54:06.300Z,96337.95
2018-09-06T18:56:33.659Z,96334.87
2018-09-06T18:59:00.946Z,96336.61
2018-09-06T19:01:28.216Z,96340.02
2018-09-06T19:03:55.463Z,96336.77
2018-09-06T19:06:22.652Z,96327.98
2018-09-06T19:08:50.080Z,96327.44
2018-09-06T19:11:18.075Z,96332.80
2018-09-06T19:13:45.334Z,96331.66
2018-09-06T19:16:12.607Z,96331.25
2018-09-06T19:18:39.903Z,96329.54
2018-09-06T19:21:07.185Z,96327.39
2018-09-06T19:23:34.599Z,96326.23
2018-09-06T19:26:01.930Z,96325.66
2018-09-06T19:28:29.154Z,96325.83
2018-09-06T19:30:56.506Z,96326.78
2018-09-06T19:33:23.788Z,96329.65
2018-09-06T19:35:51.111Z,96328.77
2018-09-06T19:38:18.695Z,96328.52
2018-09-06T19:40:46.009Z,96334.80
2018-09-06T19:56:12.797Z,96327.08
2018-09-06T19:58:40.109Z,96320.77
2018-09-06T20:01:07.390Z,96326.38
2018-09-06T20:03:37.935Z,96321.45
2018-09-06T20:06:05.266Z,96322.52
2018-09-06T20:08:32.761Z,96325.64
2018-09-06T20:11:00.065Z,96322.84
2018-09-06T20:13:27.283Z,96316.52
2018-09-06T20:15:54.580Z,96323.94
2018-09-06T20:18:21.831Z,96312.45
2018-09-06T20:20:49.234Z,96319.36
2018-09-06T20:23:16.531Z,96319.53
2018-09-06T20:25:44.269Z,96315.09
2018-09-06T20:28:11.540Z,96315.61
2018-09-06T20:30:38.862Z,96320.33
2018-09-06T20:33:06.165Z,96315.86
2018-09-06T20:35:33.485Z,96318.92
2018-09-06T20:38:00.824Z,96310.97
2018-09-06T20:40:28.002Z,96312.06
2018-09-06T20:42:55.290Z,96309.70
2018-09-06T20:45:22.531Z,96314.55
2018-09-06T20:47:49.789Z,96310.87
2018-09-06T20:50:17.389Z,96306.93
2018-09-06T20:52:44.707Z,96311.06
2018-09-06T20:55:12.033Z,96312.59
2018-09-06T20:57:39.306Z,96309.39
2018-09-06T21:00:06.538Z,96318.17
2018-09-06T21:02:37.457Z,96319.75
2018-09-06T21:05:05.323Z,96320.05
2018-09-06T21:07:32.797Z,96318.53
2018-09-06T21:10:00.042Z,96316.55
2018-09-06T21:12:27.305Z,96314.08
2018-09-06T21:14:54.514Z,96310.02
2018-09-06T21:17:21.775Z,96313.70
2018-09-06T21:19:49.058Z,96306.78
2018-09-06T21:22:16.407Z,96314.50
2018-09-06T21:24:43.705Z,96319.08
2018-09-06T21:27:10.934Z,96319.27
2018-09-06T21:29:38.197Z,96315.40
2018-09-06T21:32:05.538Z,96314.09
2018-09-06T21:34:32.754Z,96318.42
2018-09-06T21:37:00.034Z,96315.19
2018-09-06T21:39:27.285Z,96321.09
2018-09-06T21:41:54.515Z,96315.30
2018-09-06T21:44:21.946Z,96323.94
2018-09-06T21:46:49.295Z,96310.59
2018-09-06T21:49:16.552Z,96315.23
2018-09-06T21:51:43.940Z,96313.59
2018-09-06T21:54:11.180Z,96312.28
2018-09-06T21:56:38.420Z,96312.56
2018-09-06T21:59:05.693Z,96315.86
2018-09-06T22:01:32.932Z,96315.03
2018-09-06T22:04:00.306Z,96312.39
2018-09-06T22:06:27.648Z,96312.05
2018-09-06T22:08:54.968Z,96305.33
2018-09-06T22:11:22.105Z,96308.41
2018-09-06T22:13:49.430Z,96305.63
2018-09-06T22:16:16.789Z,96310.63
2018-09-06T22:18:44.117Z,96311.31
2018-09-06T22:21:11.372Z,96314.14
2018-09-06T22:23:38.510Z,96337.52
2018-09-06T22:26:05.760Z,96337.58
2018-09-06T22:28:32.921Z,96355.27
2018-09-06T22:31:00.256Z,96341.94
2018-09-06T22:33:27.668Z,96339.44
2018-09-06T22:35:54.825Z,96325.34
2018-09-06T22:38:22.002Z,96330.59
2018-09-06T22:40:49.208Z,96333.17
2018-09-06T22:43:16.370Z,96333.36
2018-09-06T22:45:43.640Z,96331.28
2018-09-06T22:48:10.869Z,96330.98
2018-09-06T22:50:37.981Z,96332.95
2018-09-06T22:53:05.155Z,96337.30
2018-09-06T22:55:32.275Z,96333.31
2018-09-06T22:57:59.398Z,96327.01
2018-09-06T23:00:30.052Z,96341.19
2018-09-06T23:03:03.257Z,96338.97
2018-09-06T23:05:30.716Z,96338.84
2018-09-06T23:07:58.000Z,96340.79
2018-09-06T23:10:25.176Z,96344.63
2018-09-06T23:12:52.365Z,96338.82
2018-09-06T23:15:19.650Z,96344.11
2018-09-06T23:17:46.821Z,96353.83
2018-09-06T23:20:14.068Z,96357.41
2018-09-06T23:22:41.265Z,96350.37
2018-09-06T23:25:09.080Z,96351.52
2018-09-06T23:27:36.191Z,96352.97
2018-09-06T23:30:04.492Z,96354.09
2018-09-06T23:32:31.777Z,96361.83
2018-09-06T23:34:58.860Z,96354.95
2018-09-06T23:37:26.072Z,96351.22
2018-09-06T23:39:53.168Z,96350.95
2018-09-06T23:42:23.407Z,96352.13
2018-09-06T23:44:50.513Z,96347.42
2018-09-06T23:47:17.986Z,96345.51
2018-09-06T23:49:45.136Z,96354.46
2018-09-06T23:52:12.393Z,96357.10
2018-09-06T23:54:39.577Z,96356.77
2018-09-06T23:57:06.750Z,96356.80
2018-09-06T23:59:33.955Z,96355.33
